createdAt,value
2023-01-05T00:01:42.028Z,99425.59
2023-01-05T00:04:09.100Z,99408.78
2023-01-05T00:06:37.317Z,99421.91
2023-01-05T00:09:05.049Z,99409.63
2023-01-05T00:11:50.305Z,99415.84
2023-01-05T00:14:39.821Z,99421.81
2023-01-05T00:17:26.215Z,99425.88
2023-01-05T00:20:11.469Z,99394.72
2023-01-05T00:22:47.482Z,99381.44
2023-01-05T00:25:19.313Z,99376.66
2023-01-05T00:27:50.514Z,99385.28
2023-01-05T00:30:21.335Z,99366.72
2023-01-05T00:32:48.576Z,99383.63
2023-01-05T00:35:16.558Z,99375.69
2023-01-05T00:37:44.022Z,99399.91
2023-01-05T00:40:15.374Z,99390.25
2023-01-05T00:42:42.914Z,99383.25
2023-01-05T00:45:12.994Z,99381.19
2023-01-05T00:47:40.376Z,99402.97
2023-01-05T00:50:09.744Z,99391.69
2023-01-05T00:52:36.734Z,99386.78
2023-01-05T00:55:03.628Z,99396.38
2023-01-05T00:57:30.553Z,99393.00
2023-01-05T00:59:57.327Z,99398.69
2023-01-05T01:02:24.303Z,99397.72
2023-01-05T01:04:51.196Z,99422.53
2023-01-05T01:07:17.971Z,99405.56
2023-01-05T01:09:44.828Z,99396.75
2023-01-05T01:12:11.679Z,99406.97
2023-01-05T01:14:39.247Z,99412.50
2023-01-05T01:17:06.163Z,99417.13
2023-01-05T01:19:33.565Z,99410.47
2023-01-05T01:22:01.674Z,99401.44
2023-01-05T01:24:28.914Z,99423.09
2023-01-05T01:26:56.209Z,99416.19
2023-01-05T01:29:24.210Z,99429.72
2023-01-05T01:31:53.195Z,99415.41
2023-01-05T01:34:20.939Z,99409.75
2023-01-05T01:36:48.200Z,99403.38
2023-01-05T01:39:16.007Z,99365.41
2023-01-05T01:41:43.175Z,99398.41
2023-01-05T01:44:47.471Z,99396.75
2023-01-05T01:47:40.551Z,99394.09
2023-01-05T01:50:16.210Z,99343.94
2023-01-05T01:52:45.800Z,99382.56
2023-01-05T01:55:13.618Z,99379.00
2023-01-05T01:57:41.731Z,99377.09
2023-01-05T02:00:10.632Z,99378.28
2023-01-05T02:02:37.521Z,99367.00
2023-01-05T02:05:10.639Z,99377.53
2023-01-05T02:07:44.785Z,99367.66
2023-01-05T02:10:12.265Z,99365.88
2023-01-05T02:13:01.625Z,99372.63
2023-01-05T02:15:58.410Z,99361.38
2023-01-05T02:18:57.938Z,99352.47
2023-01-05T02:21:55.017Z,99363.78
2023-01-05T02:25:11.992Z,99372.88
2023-01-05T02:28:08.167Z,99359.34
2023-01-05T02:31:09.508Z,99356.06
2023-01-05T02:34:07.266Z,99353.34
2023-01-05T02:36:54.624Z,99356.69
2023-01-05T02:39:43.804Z,99349.53
2023-01-05T02:42:26.964Z,99331.19
2023-01-05T02:44:54.022Z,99348.09
2023-01-05T02:47:27.780Z,99343.16
2023-01-05T02:50:03.836Z,99326.47
2023-01-05T02:52:46.121Z,99332.22
2023-01-05T02:55:18.837Z,99344.56
2023-01-05T02:57:56.324Z,99349.75
2023-01-05T03:00:43.918Z,99341.97
2023-01-05T03:03:28.058Z,99338.44
2023-01-05T03:06:28.671Z,99338.59
2023-01-05T03:09:03.023Z,99341.00
2023-01-05T03:12:03.448Z,99341.81
2023-01-05T03:14:50.427Z,99332.53
2023-01-05T03:17:28.468Z,99340.56
2023-01-05T03:19:56.647Z,99342.59
2023-01-05T03:22:49.585Z,99340.78
2023-01-05T03:25:40.540Z,99337.72
2023-01-05T03:28:36.925Z,99336.00
2023-01-05T03:31:28.645Z,99341.91
2023-01-05T03:34:27.936Z,99345.97
2023-01-05T03:37:10.323Z,99341.75
2023-01-05T03:39:41.199Z,99345.88
2023-01-05T03:42:10.510Z,99348.34
2023-01-05T03:44:39.676Z,99341.69
2023-01-05T03:47:06.835Z,99335.59
2023-01-05T03:49:33.775Z,99332.28
2023-01-05T03:52:00.529Z,99329.84
2023-01-05T03:54:27.374Z,99334.81
2023-01-05T03:56:54.103Z,99333.97
2023-01-05T03:59:21.010Z,99331.31
2023-01-05T04:01:47.907Z,99335.66
2023-01-05T04:04:14.765Z,99325.91
2023-01-05T04:06:41.568Z,99328.56
2023-01-05T04:09:08.406Z,99331.94
2023-01-05T04:11:35.158Z,99320.94
2023-01-05T04:14:01.959Z,99319.41
2023-01-05T04:16:28.911Z,99324.59
2023-01-05T04:18:55.840Z,99306.56
2023-01-05T04:21:22.599Z,99321.69
2023-01-05T04:23:49.382Z,99318.34
2023-01-05T04:26:16.166Z,99320.94
2023-01-05T04:28:42.975Z,99318.03
2023-01-05T04:31:09.784Z,99319.94
2023-01-05T04:33:39.259Z,99311.47
2023-01-05T04:36:07.892Z,99311.38
2023-01-05T04:38:34.672Z,99309.50
2023-01-05T04:41:01.458Z,99312.09
2023-01-05T04:43:28.262Z,99313.81
2023-01-05T04:45:55.092Z,99311.19
2023-01-05T04:48:21.903Z,99313.56
2023-01-05T04:50:55.903Z,99317.00
2023-01-05T04:53:23.460Z,99327.06
2023-01-05T04:55:51.490Z,99333.63
2023-01-05T04:58:19.114Z,99324.91
2023-01-05T05:00:45.950Z,99333.75
2023-01-05T05:03:12.733Z,99327.50
2023-01-05T05:05:39.529Z,99330.16
2023-01-05T05:08:06.315Z,99332.00
2023-01-05T05:10:33.402Z,99331.09
2023-01-05T05:13:00.230Z,99326.88
2023-01-05T05:15:27.023Z,99330.16
2023-01-05T05:17:53.817Z,99325.06
2023-01-05T05:20:20.660Z,99327.03
2023-01-05T05:22:47.516Z,99335.16
2023-01-05T05:25:14.314Z,99334.53
2023-01-05T05:27:41.072Z,99333.53
2023-01-05T05:30:08.794Z,99335.75
2023-01-05T05:32:40.891Z,99340.00
2023-01-05T05:35:10.734Z,99344.91
2023-01-05T05:37:37.503Z,99349.50
2023-01-05T05:40:04.889Z,99353.97
2023-01-05T05:42:31.642Z,99356.50
2023-01-05T05:44:58.419Z,99360.84
2023-01-05T05:47:25.252Z,99359.44
2023-01-05T05:49:52.005Z,99369.97
2023-01-05T05:52:18.777Z,99365.63
2023-01-05T05:54:45.641Z,99377.66
2023-01-05T05:57:12.497Z,99380.41
2023-01-05T05:59:39.294Z,99379.88
2023-01-05T06:02:06.252Z,99397.09
2023-01-05T06:04:33.243Z,99411.66
2023-01-05T06:07:00.030Z,99414.25
2023-01-05T06:09:26.836Z,99409.13
2023-01-05T06:11:53.667Z,99415.88
2023-01-05T06:14:20.492Z,99424.63
2023-01-05T06:16:47.277Z,99422.94
2023-01-05T06:19:14.280Z,99430.59
2023-01-05T06:21:41.175Z,99439.28
2023-01-05T06:24:08.214Z,99435.13
2023-01-05T06:26:34.981Z,99445.66
2023-01-05T06:29:01.872Z,99434.50
2023-01-05T06:31:28.701Z,99440.47
2023-01-05T06:33:55.474Z,99430.63
2023-01-05T06:36:22.304Z,99457.47
2023-01-05T06:38:49.128Z,99457.38
2023-01-05T06:41:15.872Z,99451.56
2023-01-05T06:43:42.664Z,99452.47
2023-01-05T06:46:09.491Z,99469.16
2023-01-05T06:48:36.298Z,99474.34
2023-01-05T06:51:03.137Z,99465.69
2023-01-05T06:53:29.884Z,99475.22
2023-01-05T06:55:56.750Z,99474.50
2023-01-05T06:58:23.527Z,99472.13
2023-01-05T07:00:50.507Z,99486.03
2023-01-05T07:03:17.278Z,99482.78
2023-01-05T07:05:44.154Z,99492.31
2023-01-05T07:08:11.049Z,99487.97
2023-01-05T07:10:37.824Z,99463.47
2023-01-05T07:13:04.619Z,99477.78
2023-01-05T07:15:31.390Z,99492.38
2023-01-05T07:17:58.255Z,99501.81
2023-01-05T07:20:24.996Z,99488.22
2023-01-05T07:22:51.835Z,99507.94
2023-01-05T07:25:18.585Z,99508.81
2023-01-05T07:27:53.081Z,99510.53
2023-01-05T07:30:19.910Z,99505.47
2023-01-05T07:32:46.661Z,99517.31
2023-01-05T07:35:17.768Z,99517.38
2023-01-05T07:37:45.640Z,99500.50
2023-01-05T07:40:12.794Z,99522.56
2023-01-05T07:42:39.673Z,99521.78
2023-01-05T07:45:07.228Z,99525.22
2023-01-05T07:47:34.164Z,99531.25
2023-01-05T07:50:01.828Z,99525.88
2023-01-05T07:52:30.613Z,99527.75
2023-01-05T07:54:58.255Z,99526.78
2023-01-05T07:57:25.141Z,99531.00
2023-01-05T07:59:51.952Z,99537.16
2023-01-05T08:02:18.848Z,99541.38
2023-01-05T08:04:46.582Z,99536.31
2023-01-05T08:07:15.549Z,99548.44
2023-01-05T08:10:01.280Z,99546.69
2023-01-05T08:12:29.484Z,99541.63
2023-01-05T08:14:56.743Z,99524.53
2023-01-05T08:17:23.627Z,99545.19
2023-01-05T08:19:50.489Z,99555.50
2023-01-05T08:22:17.300Z,99560.50
2023-01-05T08:24:44.188Z,99521.59
2023-01-05T08:27:11.032Z,99564.78
2023-01-05T08:29:37.966Z,99559.84
2023-01-05T08:32:05.074Z,99565.03
2023-01-05T08:34:34.899Z,99558.16
2023-01-05T08:37:01.948Z,99564.28
2023-01-05T08:39:28.813Z,99558.38
2023-01-05T08:42:00.584Z,99575.47
2023-01-05T08:44:29.062Z,99584.94
2023-01-05T08:46:55.870Z,99586.59
2023-01-05T08:49:24.076Z,99587.53
2023-01-05T08:51:50.920Z,99580.28
2023-01-05T08:54:17.777Z,99587.91
2023-01-05T08:56:44.616Z,99589.75
2023-01-05T08:59:14.570Z,99595.69
2023-01-05T09:01:41.616Z,99590.50
2023-01-05T09:04:08.632Z,99598.41
2023-01-05T09:06:35.491Z,99603.59
2023-01-05T09:09:02.297Z,99612.19
2023-01-05T09:11:29.230Z,99608.66
2023-01-05T09:14:02.925Z,99611.03
2023-01-05T09:19:20.196Z,99628.19
2023-01-05T09:21:47.142Z,99634.81
2023-01-05T09:24:14.089Z,99637.91
2023-01-05T09:26:42.288Z,99634.75
2023-01-05T09:29:10.272Z,99612.53
2023-01-05T09:31:37.221Z,99644.59
2023-01-05T09:34:04.456Z,99641.84
2023-01-05T09:36:32.266Z,99645.91
2023-01-05T09:38:59.368Z,99654.19
2023-01-05T09:41:47.769Z,99649.22
2023-01-05T09:44:30.180Z,99649.94
2023-01-05T09:47:03.807Z,99654.47
2023-01-05T09:49:32.494Z,99656.69
2023-01-05T09:52:04.020Z,99651.38
2023-01-05T09:54:34.589Z,99649.88
2023-01-05T09:57:10.722Z,99662.34
2023-01-05T09:59:43.804Z,99661.41
2023-01-05T10:02:59.434Z,99665.00
2023-01-05T10:05:28.573Z,99661.47
2023-01-05T10:08:15.154Z,99660.03
2023-01-05T10:11:20.649Z,99662.69
2023-01-05T10:14:08.758Z,99650.16
2023-01-05T10:16:35.950Z,99669.66
2023-01-05T10:19:02.919Z,99665.84
2023-01-05T10:22:03.279Z,99656.13
2023-01-05T10:24:53.902Z,99665.22
2023-01-05T10:27:46.307Z,99663.47
2023-01-05T10:30:24.956Z,99666.94
2023-01-05T10:33:39.720Z,99669.59
2023-01-05T10:37:06.029Z,99662.53
2023-01-05T10:39:44.071Z,99657.41
2023-01-05T10:42:22.711Z,99651.59
2023-01-05T10:44:59.239Z,99660.31
2023-01-05T10:47:30.303Z,99650.78
2023-01-05T10:49:58.240Z,99649.94
2023-01-05T10:52:25.139Z,99654.97
2023-01-05T10:55:02.304Z,99648.84
2023-01-05T10:57:34.589Z,99654.84
2023-01-05T11:00:10.830Z,99644.47
2023-01-05T11:03:01.393Z,99652.22
2023-01-05T11:05:41.776Z,99644.25
2023-01-05T11:08:20.063Z,99633.16
2023-01-05T11:10:56.932Z,99646.03
2023-01-05T11:13:57.440Z,99649.28
2023-01-05T11:16:32.543Z,99647.69
2023-01-05T11:19:02.735Z,99642.22
2023-01-05T11:21:35.707Z,99643.94
2023-01-05T11:24:04.269Z,99639.56
2023-01-05T11:26:37.223Z,99641.34
2023-01-05T11:29:10.126Z,99653.41
2023-01-05T11:31:47.996Z,99659.03
2023-01-05T11:34:26.348Z,99652.38
2023-01-05T11:37:08.555Z,99638.19
2023-01-05T11:39:54.977Z,99646.63
2023-01-05T11:42:25.957Z,99642.16
2023-01-05T11:45:02.641Z,99636.47
2023-01-05T11:47:54.932Z,99634.66
2023-01-05T11:50:27.983Z,99641.66
2023-01-05T11:53:00.487Z,99638.91
2023-01-05T11:55:31.456Z,99642.13
2023-01-05T11:58:13.511Z,99644.91
2023-01-05T12:01:02.007Z,99634.06
2023-01-05T12:04:08.705Z,99634.13
2023-01-05T12:06:59.952Z,99620.50
2023-01-05T12:10:02.683Z,99626.47
2023-01-05T12:13:38.340Z,99627.66
2023-01-05T12:16:35.255Z,99631.41
2023-01-05T12:19:22.995Z,99630.50
2023-01-05T12:22:26.830Z,99627.81
2023-01-05T12:25:17.707Z,99625.84
2023-01-05T12:28:35.708Z,99631.69
2023-01-05T12:35:18.490Z,99611.59
2023-01-05T12:38:31.820Z,99643.22
2023-01-05T12:41:41.129Z,99635.50
2023-01-05T12:44:27.197Z,99642.94
2023-01-05T12:47:14.785Z,99643.09
2023-01-05T12:49:51.854Z,99643.94
2023-01-05T12:52:35.116Z,99642.06
2023-01-05T12:55:06.223Z,99647.31
2023-01-05T12:57:41.934Z,99657.56
2023-01-05T13:00:17.889Z,99649.44
2023-01-05T13:02:55.811Z,99654.25
2023-01-05T13:05:44.457Z,99658.78
2023-01-05T13:08:31.721Z,99657.63
2023-01-05T13:11:09.056Z,99661.69
2023-01-05T13:13:46.148Z,99663.47
2023-01-05T13:16:24.748Z,99662.03
2023-01-05T13:19:22.670Z,99667.09
2023-01-05T13:21:52.131Z,99660.22
2023-01-05T13:24:38.360Z,99669.44
2023-01-05T13:27:05.139Z,99662.47
2023-01-05T13:29:40.206Z,99661.44
2023-01-05T13:32:22.382Z,99656.56
2023-01-05T13:35:10.535Z,99651.13
2023-01-05T13:38:06.497Z,99663.47
2023-01-05T13:40:38.589Z,99655.47
2023-01-05T13:43:43.196Z,99665.13
2023-01-05T13:46:37.545Z,99658.84
2023-01-05T13:49:32.246Z,99655.94
2023-01-05T13:52:51.221Z,99653.47
2023-01-05T13:55:26.050Z,99660.41
2023-01-05T13:57:55.613Z,99666.13
2023-01-05T14:00:37.098Z,99666.97
2023-01-05T14:03:23.560Z,99664.28
2023-01-05T14:06:05.289Z,99661.75
2023-01-05T14:08:39.945Z,99665.34
2023-01-05T14:11:26.870Z,99670.41
2023-01-05T14:14:08.117Z,99678.06
2023-01-05T14:16:35.167Z,99657.19
2023-01-05T14:19:25.537Z,99663.19
2023-01-05T14:21:59.549Z,99678.00
2023-01-05T14:24:47.355Z,99679.56
2023-01-05T14:27:19.028Z,99679.81
2023-01-05T14:29:48.737Z,99681.63
2023-01-05T14:32:27.421Z,99691.09
2023-01-05T14:34:58.497Z,99691.31
2023-01-05T14:37:39.408Z,99695.50
2023-01-05T14:40:46.223Z,99694.47
2023-01-05T14:43:33.995Z,99693.91
2023-01-05T14:46:11.506Z,99698.97
2023-01-05T14:48:58.925Z,99704.81
2023-01-05T14:51:30.450Z,99702.47
2023-01-05T14:54:03.791Z,99706.81
2023-01-05T14:56:37.793Z,99708.50
2023-01-05T14:59:25.532Z,99717.19
2023-01-05T15:02:19.056Z,99707.06
2023-01-05T15:04:50.798Z,99710.56
2023-01-05T15:07:55.185Z,99708.03
2023-01-05T15:10:58.535Z,99709.66
2023-01-05T15:13:37.466Z,99709.47
2023-01-05T15:16:27.414Z,99707.66
2023-01-05T15:19:41.741Z,99702.78
2023-01-05T15:22:43.102Z,99703.69
2023-01-05T15:26:02.722Z,99703.69
2023-01-05T15:29:14.062Z,99707.97
2023-01-05T15:32:27.639Z,99707.97
2023-01-05T15:35:04.892Z,99701.28
2023-01-05T15:37:40.307Z,99712.63
2023-01-05T15:40:30.761Z,99704.84
2023-01-05T15:43:02.268Z,99707.59
2023-01-05T15:45:35.206Z,99711.97
2023-01-05T15:48:09.650Z,99705.00
2023-01-05T15:50:51.772Z,99704.31
2023-01-05T15:53:41.063Z,99705.75
2023-01-05T15:56:35.828Z,99716.25
2023-01-05T15:59:26.503Z,99712.88
2023-01-05T16:01:53.296Z,99706.25
2023-01-05T16:04:20.175Z,99718.97
2023-01-05T16:06:50.732Z,99718.91
2023-01-05T16:09:34.794Z,99713.53
2023-01-05T16:12:25.774Z,99712.78
2023-01-05T16:15:01.688Z,99708.53
2023-01-05T16:17:33.201Z,99712.88
2023-01-05T16:20:23.976Z,99711.06
2023-01-05T16:23:12.893Z,99713.59
2023-01-05T16:25:53.316Z,99713.53
2023-01-05T16:28:22.706Z,99718.72
2023-01-05T16:30:51.434Z,99721.50
2023-01-05T16:33:36.072Z,99725.06
2023-01-05T16:36:21.931Z,99720.72
2023-01-05T16:38:49.185Z,99730.16
2023-01-05T16:41:28.425Z,99728.56
2023-01-05T16:43:57.396Z,99725.91
2023-01-05T16:46:42.605Z,99734.50
2023-01-05T16:50:01.562Z,99735.34
2023-01-05T16:52:35.945Z,99742.47
2023-01-05T16:55:29.312Z,99738.09
2023-01-05T16:57:58.321Z,99739.09
2023-01-05T17:00:35.004Z,99733.56
2023-01-05T17:03:25.562Z,99737.69
2023-01-05T17:05:53.884Z,99732.47
2023-01-05T17:08:27.954Z,99731.53
2023-01-05T17:11:00.580Z,99724.47
2023-01-05T17:13:37.866Z,99727.13
2023-01-05T17:16:05.639Z,99721.38
2023-01-05T17:18:32.659Z,99735.06
2023-01-05T17:21:00.276Z,99730.16
2023-01-05T17:23:49.116Z,99728.50
2023-01-05T17:26:38.289Z,99721.50
2023-01-05T17:29:07.041Z,99725.06
2023-01-05T17:31:34.942Z,99722.44
2023-01-05T17:34:02.158Z,99724.97
2023-01-05T17:36:33.599Z,99723.16
2023-01-05T17:39:00.726Z,99694.53
2023-01-05T17:41:27.674Z,99705.03
2023-01-05T17:43:54.476Z,99721.09
2023-01-05T17:46:28.833Z,99712.38
2023-01-05T17:48:57.111Z,99716.03
2023-01-05T17:51:23.915Z,99709.13
2023-01-05T17:53:50.747Z,99714.31
2023-01-05T17:56:20.002Z,99719.50
2023-01-05T17:58:48.039Z,99717.97
2023-01-05T18:01:14.950Z,99709.31
2023-01-05T18:03:41.821Z,99702.69
2023-01-05T18:06:09.228Z,99718.19
2023-01-05T18:08:36.752Z,99712.78
2023-01-05T18:11:08.426Z,99710.91
2023-01-05T18:13:35.612Z,99708.56
2023-01-05T18:16:10.843Z,99716.44
2023-01-05T18:18:38.261Z,99717.09
2023-01-05T18:21:06.076Z,99716.22
2023-01-05T18:23:33.287Z,99711.03
2023-01-05T18:26:09.844Z,99699.75
2023-01-05T18:28:37.923Z,99708.31
2023-01-05T18:31:15.749Z,99700.59
2023-01-05T18:33:42.690Z,99698.94
2023-01-05T18:36:15.118Z,99709.31
2023-01-05T18:38:42.770Z,99690.50
2023-01-05T18:41:11.124Z,99679.59
2023-01-05T18:43:38.552Z,99706.84
2023-01-05T18:46:06.175Z,99705.78
2023-01-05T18:48:33.019Z,99688.81
2023-01-05T18:50:59.914Z,99704.69
2023-01-05T18:53:26.792Z,99698.69
2023-01-05T18:55:54.249Z,99697.09
2023-01-05T18:58:21.164Z,99705.66
2023-01-05T19:00:48.073Z,99687.03
2023-01-05T19:03:15.144Z,99703.19
2023-01-05T19:05:43.831Z,99702.41
2023-01-05T19:08:12.779Z,99693.84
2023-01-05T19:10:39.947Z,99695.69
2023-01-05T19:13:06.917Z,99690.56
2023-01-05T19:15:35.703Z,99696.63
2023-01-05T19:18:03.135Z,99698.41
2023-01-05T19:20:31.611Z,99679.00
2023-01-05T19:22:59.934Z,99703.59
2023-01-05T19:25:27.009Z,99695.88
2023-01-05T19:27:53.934Z,99700.31
2023-01-05T19:30:23.340Z,99695.97
2023-01-05T19:32:50.202Z,99697.78
2023-01-05T19:35:17.156Z,99697.78
2023-01-05T19:37:45.099Z,99697.00
2023-01-05T19:40:12.265Z,99680.06
2023-01-05T19:42:39.158Z,99677.63
2023-01-05T19:45:09.210Z,99691.88
2023-01-05T19:47:40.287Z,99678.28
2023-01-05T19:50:09.557Z,99648.81
2023-01-05T19:52:36.591Z,99686.75
2023-01-05T19:55:03.712Z,99685.91
2023-01-05T19:57:30.603Z,99693.63
2023-01-05T19:59:58.564Z,99684.16
2023-01-05T20:02:26.821Z,99684.25
2023-01-05T20:04:53.743Z,99682.72
2023-01-05T20:07:20.888Z,99690.25
2023-01-05T20:09:50.537Z,99686.78
2023-01-05T20:12:17.403Z,99690.38
2023-01-05T20:14:44.308Z,99686.91
2023-01-05T20:17:13.026Z,99695.66
2023-01-05T20:19:40.470Z,99690.50
2023-01-05T20:22:13.495Z,99676.19
2023-01-05T20:24:40.698Z,99686.19
2023-01-05T20:27:13.174Z,99693.09
2023-01-05T20:29:40.594Z,99692.16
2023-01-05T20:32:21.304Z,99700.84
2023-01-05T20:34:59.628Z,99699.03
2023-01-05T20:37:29.677Z,99699.94
2023-01-05T20:40:01.859Z,99683.84
2023-01-05T20:42:30.424Z,99693.16
2023-01-05T20:44:57.557Z,99692.28
2023-01-05T20:47:24.321Z,99694.88
2023-01-05T20:49:51.461Z,99698.34
2023-01-05T20:52:18.335Z,99685.47
2023-01-05T20:54:45.353Z,99693.16
2023-01-05T20:57:12.198Z,99690.59
2023-01-05T20:59:40.586Z,99683.59
2023-01-05T21:02:18.742Z,99685.31
2023-01-05T21:04:49.530Z,99686.97
2023-01-05T21:07:16.353Z,99691.38
2023-01-05T21:09:43.361Z,99688.72
2023-01-05T21:12:10.224Z,99682.72
2023-01-05T21:14:37.886Z,99681.00
2023-01-05T21:17:04.881Z,99688.00
2023-01-05T21:19:31.759Z,99684.50
2023-01-05T21:21:58.702Z,99679.47
2023-01-05T21:24:26.962Z,99679.41
2023-01-05T21:26:54.519Z,99672.56
2023-01-05T21:29:23.152Z,99678.59
2023-01-05T21:31:51.336Z,99661.66
2023-01-05T21:34:18.309Z,99682.88
2023-01-05T21:36:45.835Z,99680.22
2023-01-05T21:39:20.467Z,99676.81
2023-01-05T21:42:07.630Z,99644.03
2023-01-05T21:44:34.824Z,99677.75
2023-01-05T21:47:04.630Z,99677.63
2023-01-05T21:49:32.464Z,99670.69
2023-01-05T21:52:17.735Z,99673.34
2023-01-05T21:55:03.336Z,99658.06
2023-01-05T21:57:30.197Z,99657.13
2023-01-05T21:59:57.041Z,99663.13
2023-01-05T22:02:23.943Z,99645.25
2023-01-05T22:04:50.700Z,99650.44
2023-01-05T22:07:17.514Z,99645.50
2023-01-05T22:09:44.299Z,99655.75
2023-01-05T22:12:11.187Z,99656.59
2023-01-05T22:14:38.204Z,99651.88
2023-01-05T22:17:07.223Z,99644.78
2023-01-05T22:19:34.560Z,99652.41
2023-01-05T22:22:01.327Z,99651.50
2023-01-05T22:24:28.176Z,99638.69
2023-01-05T22:26:54.961Z,99652.50
2023-01-05T22:29:21.833Z,99650.91
2023-01-05T22:31:50.602Z,99648.38
2023-01-05T22:34:17.600Z,99647.59
2023-01-05T22:36:44.441Z,99641.66
2023-01-05T22:39:12.249Z,99625.75
2023-01-05T22:41:39.185Z,99637.41
2023-01-05T22:44:06.724Z,99644.31
2023-01-05T22:46:34.386Z,99644.31
2023-01-05T22:49:01.362Z,99644.31
2023-01-05T22:51:36.902Z,99654.69
2023-01-05T22:54:04.669Z,99654.56
2023-01-05T22:56:33.020Z,99658.84
2023-01-05T22:59:00.912Z,99647.69
2023-01-05T23:01:31.655Z,99643.44
2023-01-05T23:04:00.991Z,99656.38
2023-01-05T23:06:28.483Z,99648.03
2023-01-05T23:08:56.185Z,99658.31
2023-01-05T23:11:29.790Z,99658.31
2023-01-05T23:13:58.772Z,99645.50
2023-01-05T23:16:26.458Z,99657.78
2023-01-05T23:18:53.698Z,99642.97
2023-01-05T23:21:22.665Z,99649.00
2023-01-05T23:23:52.402Z,99639.44
2023-01-05T23:26:19.251Z,99625.03
2023-01-05T23:28:46.548Z,99634.19
2023-01-05T23:31:14.716Z,99633.34
2023-01-05T23:33:43.105Z,99625.59
2023-01-05T23:36:11.966Z,99624.66
2023-01-05T23:38:39.304Z,99620.34
2023-01-05T23:41:08.598Z,99615.22
2023-01-05T23:43:38.870Z,99606.59
2023-01-05T23:46:10.825Z,99605.78
2023-01-05T23:48:38.434Z,99595.69
2023-01-05T23:51:07.674Z,99607.63
2023-01-05T23:53:34.567Z,99600.88
2023-01-05T23:56:17.640Z,99608.44
2023-01-05T23:58:44.854Z,99605.78
